createdAt,value
2017-08-09T06:30:24.132Z,2408
2017-08-09T06:31:24.785Z,2768
2017-08-09T06:32:26.655Z,2708
2017-08-09T06:33:27.527Z,2420
2017-08-09T06:34:28.204Z,2200
2017-08-09T06:35:28.959Z,2172
2017-08-09T06:36:29.918Z,2384
2017-08-09T06:37:30.673Z,2264
2017-08-09T06:38:31.526Z,1948
2017-08-09T06:39:32.263Z,1888
2017-08-09T06:40:32.990Z,2192
2017-08-09T06:41:33.656Z,2228
2017-08-09T06:42:34.711Z,2416
2017-08-09T06:43:35.435Z,2300
2017-08-09T06:44:36.114Z,2348
2017-08-09T06:45:36.816Z,2724
2017-08-09T06:46:37.475Z,3368
2017-08-09T06:47:38.222Z,4064
2017-08-09T06:48:39.440Z,4068
2017-08-09T06:49:40.124Z,3692
2017-08-09T06:50:40.846Z,3320
2017-08-09T06:51:41.485Z,3072
2017-08-09T06:52:42.170Z,3340
2017-08-09T06:53:42.931Z,3172
2017-08-09T06:54:43.622Z,3268
2017-08-09T06:55:44.681Z,3028
2017-08-09T06:56:45.339Z,2960
2017-08-09T06:57:46.020Z,3112
2017-08-09T06:58:46.807Z,3028
2017-08-09T06:59:47.491Z,3312
2017-08-09T07:00:48.192Z,3520
2017-08-09T07:01:49.153Z,3424
2017-08-09T07:02:49.842Z,3380
2017-08-09T07:03:50.894Z,2824
2017-08-09T07:04:51.569Z,2916
2017-08-09T07:05:52.246Z,3404
2017-08-09T07:06:52.979Z,3072
2017-08-09T07:07:53.983Z,3136
2017-08-09T07:08:54.858Z,3624
2017-08-09T07:09:55.560Z,4272
2017-08-09T07:10:56.299Z,4228
2017-08-09T07:11:57.049Z,3552
2017-08-09T07:12:57.718Z,3052
2017-08-09T07:13:58.554Z,3260
2017-08-09T07:14:59.673Z,3348
2017-08-09T07:16:00.341Z,3300
2017-08-09T07:17:01.546Z,3712
2017-08-09T07:18:02.216Z,4280
2017-08-09T07:19:02.936Z,4448
2017-08-09T07:20:04.063Z,4260
2017-08-09T07:21:04.746Z,4256
2017-08-09T07:22:05.446Z,4420
2017-08-09T07:23:06.110Z,4420
2017-08-09T07:24:06.868Z,4668
2017-08-09T07:25:07.779Z,4772
2017-08-09T07:26:08.766Z,4648
2017-08-09T07:27:09.460Z,4332
2017-08-09T07:28:10.148Z,3856
2017-08-09T07:29:10.866Z,3780
2017-08-09T07:30:11.672Z,3904
2017-08-09T07:31:12.363Z,3948
2017-08-09T07:32:13.373Z,3996
2017-08-09T07:33:14.059Z,4048
2017-08-09T07:34:14.766Z,4212
2017-08-09T07:35:15.541Z,4480
2017-08-09T07:36:16.231Z,4704
2017-08-09T07:37:17.147Z,4940
2017-08-09T07:38:18.174Z,5068
2017-08-09T07:39:19.087Z,5184
2017-08-09T07:40:19.801Z,5224
2017-08-09T07:41:20.547Z,5232
2017-08-09T07:42:21.307Z,5268
2017-08-09T07:43:22.055Z,5336
2017-08-09T07:44:23.095Z,5388
2017-08-09T07:45:23.900Z,5404
2017-08-09T07:46:24.595Z,5388
2017-08-09T07:47:25.269Z,5392
2017-08-09T07:48:26.044Z,5460
2017-08-09T07:49:27.042Z,5540
2017-08-09T07:50:27.767Z,5584
2017-08-09T07:51:28.410Z,5500
2017-08-09T07:52:29.101Z,5496
2017-08-09T07:53:29.819Z,5480
2017-08-09T07:54:30.726Z,5416
2017-08-09T07:55:31.458Z,5352
2017-08-09T07:56:32.440Z,5308
2017-08-09T07:57:33.134Z,5236
2017-08-09T07:58:33.809Z,5168
2017-08-09T07:59:34.604Z,5152
2017-08-09T08:00:35.531Z,5236
2017-08-09T08:01:36.525Z,5252
2017-08-09T08:02:37.218Z,5308
2017-08-09T08:03:37.917Z,5404
2017-08-09T08:04:38.654Z,5472
2017-08-09T08:05:39.335Z,5500
2017-08-09T08:06:40.042Z,5440
2017-08-09T08:07:41.022Z,5444
2017-08-09T08:08:41.695Z,5440
2017-08-09T08:09:42.711Z,5476
2017-08-09T08:10:43.388Z,5576
2017-08-09T08:11:44.118Z,5712
2017-08-09T08:12:44.820Z,5884
2017-08-09T08:13:45.816Z,5944
2017-08-09T08:14:46.589Z,6112
2017-08-09T08:15:47.279Z,6200
2017-08-09T08:16:47.985Z,6252
2017-08-09T08:17:48.656Z,6340
2017-08-09T08:18:49.402Z,6400
2017-08-09T08:19:50.558Z,6472
2017-08-09T08:20:51.307Z,6504
2017-08-09T08:21:52.010Z,6524
2017-08-09T08:22:52.702Z,6536
2017-08-09T08:23:53.434Z,6560
2017-08-09T08:24:54.265Z,6480
2017-08-09T08:25:55.310Z,6496
2017-08-09T08:26:56.083Z,6568
2017-08-09T08:27:56.772Z,6636
2017-08-09T08:28:57.518Z,6848
2017-08-09T08:29:58.261Z,6760
2017-08-09T08:30:59.297Z,6536
2017-08-09T08:32:00.008Z,6368
2017-08-09T08:33:00.683Z,6296
2017-08-09T08:34:01.371Z,6128
2017-08-09T08:35:02.123Z,6000
2017-08-09T08:36:02.872Z,5964
2017-08-09T08:37:03.846Z,5864
2017-08-09T08:38:04.546Z,5700
2017-08-09T08:39:05.245Z,5488
2017-08-09T08:40:06.017Z,5284
2017-08-09T08:41:06.712Z,5100
2017-08-09T08:42:07.429Z,5000
2017-08-09T08:43:08.385Z,5000
2017-08-09T08:44:09.081Z,4908
2017-08-09T08:45:09.874Z,4716
2017-08-09T08:46:10.563Z,4748
2017-08-09T08:47:11.258Z,4644
2017-08-09T08:48:12.259Z,4712
2017-08-09T08:49:13.000Z,4928
2017-08-09T08:50:13.775Z,5164
2017-08-09T08:51:14.522Z,5452
2017-08-09T08:52:15.199Z,5528
2017-08-09T08:53:15.896Z,5688
2017-08-09T08:54:16.927Z,5632
2017-08-09T08:55:17.662Z,5508
2017-08-09T08:56:18.396Z,5332
2017-08-09T08:57:19.086Z,5216
2017-08-09T08:58:19.827Z,5192
2017-08-09T08:59:20.883Z,5044
2017-08-09T09:00:21.622Z,4808
2017-08-09T09:01:22.315Z,4504
2017-08-09T09:02:23.097Z,4392
2017-08-09T09:03:23.761Z,4124
2017-08-09T09:04:24.451Z,4000
2017-08-09T09:05:26.054Z,3880
2017-08-09T09:06:26.712Z,3588
2017-08-09T09:07:27.391Z,3752
2017-08-09T09:08:28.095Z,4048
2017-08-09T09:09:28.868Z,4244
2017-08-09T09:10:29.602Z,3616
2017-08-09T09:11:30.309Z,3512
2017-08-09T09:12:31.383Z,3516
2017-08-09T09:13:32.093Z,3284
2017-08-09T09:14:32.771Z,3272
2017-08-09T09:15:33.512Z,3564
2017-08-09T09:16:34.214Z,3820
2017-08-09T09:17:35.202Z,3656
2017-08-09T09:18:35.890Z,3172
2017-08-09T09:19:36.574Z,3008
2017-08-09T09:20:37.428Z,2928
2017-08-09T09:21:38.116Z,2888
2017-08-09T09:22:38.792Z,3004
2017-08-09T09:23:39.806Z,3188
2017-08-09T09:24:40.473Z,3524
2017-08-09T09:25:41.247Z,3876
2017-08-09T09:26:42.001Z,4456
2017-08-09T09:27:42.679Z,5028
2017-08-09T09:28:43.711Z,5608
2017-08-09T09:29:44.402Z,6260
2017-08-09T09:30:45.151Z,6624
2017-08-09T09:31:45.878Z,6968
2017-08-09T09:32:46.569Z,7016
2017-08-09T09:33:47.284Z,7272
2017-08-09T09:34:48.310Z,7516
2017-08-09T09:35:49.253Z,7668
2017-08-09T09:36:49.936Z,7612
2017-08-09T09:37:50.611Z,7524
2017-08-09T09:38:51.339Z,7452
2017-08-09T09:39:52.052Z,7488
2017-08-09T09:40:53.253Z,7468
2017-08-09T09:41:53.931Z,7228
2017-08-09T09:42:54.643Z,6900
2017-08-09T09:43:55.313Z,6664
2017-08-09T09:44:56.059Z,6220
2017-08-09T09:45:57.039Z,5724
2017-08-09T09:46:57.723Z,5336
2017-08-09T09:47:58.432Z,5024
2017-08-09T09:48:59.105Z,4852
2017-08-09T09:49:59.892Z,4760
2017-08-09T09:51:00.782Z,4716
2017-08-09T09:52:01.759Z,4704
2017-08-09T09:53:02.461Z,4684
2017-08-09T09:54:03.140Z,4760
2017-08-09T09:55:03.999Z,5012
2017-08-09T09:56:04.720Z,5056
2017-08-09T09:57:05.397Z,5132
2017-08-09T09:58:06.386Z,5316
2017-08-09T09:59:07.110Z,5508
2017-08-09T10:00:07.861Z,5612
2017-08-09T10:01:08.608Z,5652
2017-08-09T10:02:09.259Z,5816
2017-08-09T10:03:09.954Z,6132
2017-08-09T10:04:10.940Z,6796
2017-08-09T10:05:11.677Z,7492
2017-08-09T10:06:12.372Z,8188
2017-08-09T10:07:13.114Z,8964
2017-08-09T10:08:13.840Z,9180
2017-08-09T10:09:14.525Z,9416
2017-08-09T10:10:15.567Z,9372
2017-08-09T10:11:16.263Z,9472
2017-08-09T10:12:16.954Z,9136
2017-08-09T10:13:17.690Z,8660
2017-08-09T10:14:18.375Z,8564
2017-08-09T10:15:19.417Z,8524
2017-08-09T10:16:20.177Z,8656
2017-08-09T10:17:20.864Z,8524
2017-08-09T10:18:21.555Z,8056
2017-08-09T10:19:22.312Z,7116
2017-08-09T10:20:23.062Z,6772
2017-08-09T10:21:23.806Z,6712
2017-08-09T10:22:24.797Z,6708
2017-08-09T10:23:25.496Z,7064
2017-08-09T10:24:26.222Z,7492
2017-08-09T10:25:27.007Z,7848
2017-08-09T10:26:27.717Z,8028
2017-08-09T10:27:28.419Z,7928
2017-08-09T10:28:29.400Z,7848
2017-08-09T10:29:30.091Z,7980
2017-08-09T10:30:30.855Z,8312
2017-08-09T10:31:31.523Z,8788
2017-08-09T10:32:32.230Z,9376
2017-08-09T10:33:32.908Z,9748
2017-08-09T10:34:33.886Z,9868
2017-08-09T10:35:34.728Z,10044
2017-08-09T10:36:35.515Z,10324
2017-08-09T10:37:36.203Z,10368
2017-08-09T10:38:36.889Z,10036
2017-08-09T10:39:37.591Z,10068
2017-08-09T10:40:38.754Z,9700
2017-08-09T10:41:39.420Z,9256
2017-08-09T10:42:40.109Z,8824
2017-08-09T10:43:40.806Z,8052
2017-08-09T10:44:41.518Z,7856
2017-08-09T10:45:42.503Z,8048
2017-08-09T10:46:43.435Z,8512
2017-08-09T10:47:44.112Z,8896
2017-08-09T10:48:44.807Z,9144
2017-08-09T10:49:45.565Z,9180
2017-08-09T10:50:46.276Z,9116
2017-08-09T10:51:47.318Z,8816
2017-08-09T10:52:48.028Z,8976
2017-08-09T10:53:48.709Z,9324
2017-08-09T10:54:49.392Z,9872
2017-08-09T10:55:50.093Z,10084
2017-08-09T10:56:50.921Z,9972
2017-08-09T10:57:51.926Z,9908
2017-08-09T10:58:52.653Z,9656
2017-08-09T10:59:53.356Z,9252
2017-08-09T11:00:54.209Z,9064
2017-08-09T11:01:54.876Z,8960
2017-08-09T11:02:55.870Z,8892
2017-08-09T11:03:56.557Z,8780
2017-08-09T11:04:57.259Z,8724
2017-08-09T11:05:58.006Z,8552
2017-08-09T11:06:58.694Z,8288
2017-08-09T11:07:59.383Z,8096
2017-08-09T11:09:00.414Z,8020
2017-08-09T11:10:01.154Z,8036
2017-08-09T11:11:02.057Z,8100
2017-08-09T11:12:02.737Z,8460
2017-08-09T11:13:03.487Z,8892
2017-08-09T11:14:04.467Z,9144
2017-08-09T11:15:05.166Z,8696
2017-08-09T11:16:06.088Z,8084
2017-08-09T11:17:06.770Z,7924
2017-08-09T11:18:07.511Z,7680
2017-08-09T11:19:08.189Z,7492
2017-08-09T11:20:09.207Z,7248
2017-08-09T11:21:09.933Z,7160
2017-08-09T11:22:10.690Z,6828
2017-08-09T11:23:11.448Z,6484
2017-08-09T11:24:12.158Z,6248
2017-08-09T11:25:12.840Z,6160
2017-08-09T11:26:13.921Z,6196
2017-08-09T11:27:14.633Z,6120
2017-08-09T11:28:15.302Z,6040
2017-08-09T11:29:16.041Z,5964
2017-08-09T11:30:16.758Z,6000
2017-08-09T11:31:17.833Z,6012
2017-08-09T11:32:18.511Z,6200
2017-08-09T11:33:19.225Z,6564
2017-08-09T11:34:19.900Z,6772
2017-08-09T11:35:20.593Z,6744
2017-08-09T11:36:21.480Z,7000
2017-08-09T11:37:22.526Z,7052
2017-08-09T11:38:23.196Z,6856
2017-08-09T11:39:23.883Z,6812
2017-08-09T11:40:24.613Z,6828
2017-08-09T11:41:25.552Z,6480
2017-08-09T11:42:26.291Z,6268
2017-08-09T11:43:27.371Z,6096
2017-08-09T11:44:28.105Z,5596
2017-08-09T11:45:28.840Z,5224
2017-08-09T11:46:29.504Z,5012
2017-08-09T11:47:30.173Z,5136
2017-08-09T11:48:31.031Z,5592
2017-08-09T11:49:32.049Z,5772
2017-08-09T11:50:32.789Z,5724
2017-08-09T11:51:33.671Z,5892
2017-08-09T11:52:34.318Z,6280
2017-08-09T11:53:35.063Z,6652
2017-08-09T11:54:35.746Z,7156
2017-08-09T11:55:36.810Z,7684
2017-08-09T11:56:37.487Z,8004
2017-08-09T11:57:38.174Z,7916
2017-08-09T11:58:39.161Z,7660
2017-08-09T11:59:39.839Z,7184
2017-08-09T12:00:40.834Z,7004
2017-08-09T12:01:41.520Z,6704
2017-08-09T12:02:42.214Z,6852
2017-08-09T12:03:42.952Z,6848
2017-08-09T12:04:43.636Z,6984
2017-08-09T12:05:44.393Z,6932
2017-08-09T12:06:45.386Z,7268
2017-08-09T12:07:46.104Z,7340
2017-08-09T12:08:47.070Z,7232
2017-08-09T12:09:47.754Z,7296
2017-08-09T12:10:48.735Z,7860
2017-08-09T12:11:49.712Z,7972
2017-08-09T12:12:50.418Z,7560
2017-08-09T12:13:51.141Z,7044
2017-08-09T12:14:51.861Z,6696
2017-08-09T12:15:52.722Z,6764
2017-08-09T12:16:53.490Z,6996
2017-08-09T12:17:54.563Z,7240
2017-08-09T12:18:55.259Z,7344
2017-08-09T12:19:55.972Z,7484
2017-08-09T12:20:56.680Z,7640
2017-08-09T12:21:57.379Z,7664
2017-08-09T12:22:58.065Z,7444
2017-08-09T12:23:59.055Z,6796
2017-08-09T12:24:59.786Z,6820
2017-08-09T12:26:00.477Z,7580
2017-08-09T12:27:01.158Z,7972
2017-08-09T12:28:01.854Z,8084
2017-08-09T12:29:02.624Z,7628
2017-08-09T12:30:03.620Z,6960
2017-08-09T12:31:04.310Z,6516
2017-08-09T12:32:04.994Z,6256
2017-08-09T12:33:05.701Z,6516
2017-08-09T12:34:06.416Z,5992
2017-08-09T12:35:07.302Z,5720
2017-08-09T12:36:08.292Z,5736
2017-08-09T12:37:08.995Z,5992
2017-08-09T12:38:09.696Z,5812
2017-08-09T12:39:10.371Z,6044
2017-08-09T12:40:11.198Z,6312
2017-08-09T12:41:12.239Z,6284
2017-08-09T12:42:12.927Z,6432
2017-08-09T12:43:13.624Z,6752
2017-08-09T12:44:14.320Z,7208
2017-08-09T12:45:15.149Z,7592
2017-08-09T12:46:15.840Z,7920
2017-08-09T12:47:16.894Z,8316
2017-08-09T12:48:17.540Z,8540
2017-08-09T12:49:18.245Z,8544
2017-08-09T12:50:19.039Z,8276
2017-08-09T12:51:19.745Z,8220
2017-08-09T12:52:20.462Z,8964
2017-08-09T12:53:21.477Z,10048
2017-08-09T12:54:22.158Z,11272
2017-08-09T12:55:23.106Z,11904
2017-08-09T12:56:23.800Z,12384
2017-08-09T12:57:24.500Z,11844
2017-08-09T12:58:25.540Z,11936
2017-08-09T12:59:26.508Z,14076
2017-08-09T13:00:27.330Z,14020
2017-08-09T13:01:28.030Z,13848
2017-08-09T13:02:28.753Z,15524
2017-08-09T13:03:29.446Z,15876
2017-08-09T13:04:30.503Z,17600
2017-08-09T13:05:31.572Z,7948
2017-08-09T13:06:32.262Z,7256
2017-08-09T13:07:32.958Z,7652
2017-08-09T13:08:33.745Z,8248
2017-08-09T13:09:34.795Z,9064
2017-08-09T13:10:35.489Z,9984
2017-08-09T13:11:36.187Z,10912
2017-08-09T13:12:37.094Z,11160
2017-08-09T13:13:37.874Z,11356
2017-08-09T13:14:38.590Z,12288
2017-08-09T13:15:39.595Z,12204
2017-08-09T13:16:40.306Z,11852
2017-08-09T13:17:41.041Z,13348
2017-08-09T13:18:42.564Z,12944
2017-08-09T13:19:43.497Z,14324
2017-08-09T13:20:44.229Z,11892
2017-08-09T13:21:45.496Z,13596
2017-08-09T13:22:46.484Z,11608
2017-08-09T13:25:02.809Z,15008
2017-08-09T13:26:03.486Z,36448
2017-08-09T13:27:04.535Z,35776
2017-08-09T13:28:05.304Z,28032
2017-08-09T13:29:07.003Z,23296
2017-08-09T13:30:07.770Z,21440
2017-08-09T13:31:08.461Z,21728
2017-08-09T13:32:09.464Z,23168
2017-08-09T13:33:10.142Z,28896
2017-08-09T13:34:10.955Z,30656
2017-08-09T13:35:11.641Z,37824
2017-08-09T13:36:12.340Z,34208
2017-08-09T13:37:13.035Z,36288
2017-08-09T13:38:14.032Z,35520
2017-08-09T13:39:14.826Z,36576
2017-08-09T13:40:15.585Z,34688
2017-08-09T13:41:16.327Z,39168
2017-08-09T13:42:17.126Z,40224
2017-08-09T13:43:18.113Z,40672
2017-08-09T13:44:18.869Z,32512
2017-08-09T13:45:19.556Z,31520
2017-08-09T13:46:20.248Z,31872
2017-08-09T13:47:20.943Z,34240
2017-08-09T13:48:21.644Z,39232
2017-08-09T13:49:22.854Z,38944
2017-08-09T13:50:23.731Z,10572
2017-08-09T13:51:24.479Z,12748
2017-08-09T13:52:25.202Z,10828
2017-08-09T13:53:25.941Z,31968
2017-08-09T13:54:26.779Z,32352
2017-08-09T13:55:27.763Z,10468
2017-08-09T13:56:28.499Z,19288
2017-08-09T13:57:29.182Z,27808
2017-08-09T13:58:29.878Z,9996
2017-08-09T13:59:30.666Z,9044
2017-08-09T14:00:31.655Z,8388
2017-08-09T14:01:32.401Z,7648
2017-08-09T14:02:33.103Z,7224
2017-08-09T14:03:33.862Z,7476
2017-08-09T14:04:34.718Z,11028
2017-08-09T14:05:35.400Z,37056
2017-08-09T14:06:36.415Z,15160
2017-08-09T14:07:37.140Z,19848
2017-08-09T14:08:37.813Z,40128
2017-08-09T14:09:38.587Z,10056
2017-08-09T14:10:39.860Z,10344
2017-08-09T14:11:40.850Z,35968
2017-08-09T14:12:41.557Z,14468
2017-08-09T14:13:42.238Z,40320
2017-08-09T14:14:43.049Z,46880
2017-08-09T14:15:43.738Z,27552
2017-08-09T14:16:44.450Z,18308
2017-08-09T14:17:45.434Z,13664
2017-08-09T14:18:46.152Z,17444
2017-08-09T14:19:47.006Z,50720
2017-08-09T14:20:47.731Z,42272
2017-08-09T14:21:48.421Z,52704
2017-08-09T14:22:49.116Z,51040
2017-08-09T14:23:50.152Z,57024
2017-08-09T14:24:50.954Z,56128
2017-08-09T14:25:51.643Z,50048
2017-08-09T14:26:52.339Z,23584
2017-08-09T14:27:53.033Z,50304
2017-08-09T14:28:54.034Z,54816
2017-08-09T14:29:54.729Z,54912
2017-08-09T14:30:55.425Z,54560
2017-08-09T14:31:56.123Z,52448
2017-08-09T14:32:56.850Z,34048
2017-08-09T14:33:57.783Z,46592
2017-08-09T14:34:58.783Z,42784
2017-08-09T14:35:59.546Z,45888
2017-08-09T14:37:00.239Z,49696
2017-08-09T14:38:00.919Z,45824
2017-08-09T14:39:01.770Z,46848
2017-08-09T14:40:02.494Z,50368
2017-08-09T14:41:03.502Z,43712
2017-08-09T14:42:04.195Z,41952
2017-08-09T14:43:04.905Z,47872
2017-08-09T14:44:05.641Z,11232
2017-08-09T14:45:06.365Z,47104
2017-08-09T14:46:07.117Z,40960
2017-08-09T14:47:08.125Z,10588
2017-08-09T14:48:08.818Z,10712
2017-08-09T14:49:09.646Z,14736
2017-08-09T14:50:10.348Z,15544
2017-08-09T14:51:11.031Z,48864
2017-08-09T14:52:11.735Z,52192
2017-08-09T14:53:12.830Z,54464
2017-08-09T14:54:13.708Z,52384
2017-08-09T14:55:14.422Z,45440
2017-08-09T14:56:15.115Z,47808
2017-08-09T14:57:15.853Z,41152
2017-08-09T14:58:16.551Z,14840
2017-08-09T14:59:17.786Z,14176
2017-08-09T15:00:18.464Z,23680
2017-08-09T15:01:19.544Z,22848
2017-08-09T15:02:20.270Z,20448
2017-08-09T15:03:20.954Z,20576
2017-08-09T15:04:21.929Z,22848
2017-08-09T15:05:22.910Z,20544
2017-08-09T15:06:23.607Z,23552
2017-08-09T15:07:24.326Z,32128
2017-08-09T15:08:25.036Z,33664
2017-08-09T15:09:25.863Z,30912
2017-08-09T15:10:26.965Z,27648
2017-08-09T15:11:27.898Z,29568
2017-08-09T15:12:28.709Z,31936
2017-08-09T15:13:30.315Z,37824
2017-08-09T15:14:31.118Z,31936
2017-08-09T15:15:31.846Z,31456
2017-08-09T15:16:32.560Z,31232
2017-08-09T15:17:33.570Z,13640
2017-08-09T15:18:34.266Z,18644
2017-08-09T15:19:35.124Z,35168
2017-08-09T15:20:36.192Z,38944
2017-08-09T15:21:36.919Z,39552
2017-08-09T15:22:37.916Z,44320
2017-08-09T15:23:38.644Z,23328
2017-08-09T15:24:39.345Z,31488
2017-08-09T15:25:40.103Z,19584
2017-08-09T15:26:40.777Z,10500
2017-08-09T15:27:41.523Z,13404
2017-08-09T15:28:42.565Z,12164
2017-08-09T15:29:43.507Z,20928
2017-08-09T15:30:44.299Z,33504
2017-08-09T15:31:45.023Z,27616
2017-08-09T15:32:45.743Z,16068
2017-08-09T15:33:46.461Z,10496
2017-08-09T15:34:48.329Z,8328
2017-08-09T15:35:48.991Z,9424
2017-08-09T15:36:49.684Z,10008
2017-08-09T15:37:50.391Z,10388
2017-08-09T15:38:51.093Z,11528
2017-08-09T15:39:52.142Z,12004
2017-08-09T15:40:52.876Z,11244
2017-08-09T15:41:53.595Z,10076
2017-08-09T15:42:54.298Z,9352
2017-08-09T15:43:54.992Z,9960
2017-08-09T15:44:55.875Z,37728
2017-08-09T15:45:56.884Z,28640
2017-08-09T15:46:57.617Z,20576
2017-08-09T15:47:58.333Z,10908
2017-08-09T15:48:59.008Z,36416
2017-08-09T15:49:59.749Z,14028
2017-08-09T15:51:00.801Z,18668
2017-08-09T15:52:01.497Z,13080
2017-08-09T15:53:02.200Z,11508
2017-08-09T15:54:02.954Z,10128
2017-08-09T15:55:03.784Z,9088
2017-08-09T15:56:04.480Z,8204
2017-08-09T15:57:05.478Z,7312
2017-08-09T15:58:06.169Z,6932
2017-08-09T15:59:06.899Z,7116
2017-08-09T16:00:07.765Z,8048
2017-08-09T16:01:08.791Z,8920
2017-08-09T16:02:09.487Z,9252
2017-08-09T16:03:10.483Z,11688
2017-08-09T16:04:11.210Z,31040
2017-08-09T16:05:12.037Z,34432
2017-08-09T16:06:12.698Z,16744
2017-08-09T16:07:13.398Z,15344
2017-08-09T16:08:14.422Z,20960
2017-08-09T16:09:15.103Z,19808
2017-08-09T16:10:15.843Z,38560
2017-08-09T16:11:16.705Z,38240
2017-08-09T16:12:17.367Z,17600
2017-08-09T16:13:18.064Z,35392
2017-08-09T16:14:19.055Z,35104
2017-08-09T16:15:20.150Z,11120
2017-08-09T16:16:20.895Z,10900
2017-08-09T16:17:21.601Z,11068
2017-08-09T16:18:22.299Z,10856
2017-08-09T16:19:23.310Z,9748
2017-08-09T16:20:24.074Z,8824
2017-08-09T16:21:24.796Z,7836
2017-08-09T16:22:25.557Z,6604
2017-08-09T16:23:26.253Z,5780
2017-08-09T16:24:26.943Z,5588
2017-08-09T16:25:28.004Z,5832
2017-08-09T16:26:28.707Z,6276
2017-08-09T16:27:29.400Z,8452
2017-08-09T16:28:31.160Z,7492
2017-08-09T16:29:31.872Z,7008
2017-08-09T16:30:32.801Z,19072
2017-08-09T16:31:33.873Z,23360
2017-08-09T16:32:34.541Z,22976
2017-08-09T16:33:35.261Z,24416
2017-08-09T16:34:35.973Z,17508
2017-08-09T16:35:36.730Z,25056
2017-08-09T16:36:37.774Z,24832
2017-08-09T16:37:38.464Z,24256
2017-08-09T16:38:39.165Z,23584
2017-08-09T16:39:39.932Z,23168
2017-08-09T16:40:40.825Z,11540
2017-08-09T16:41:41.528Z,5968
2017-08-09T16:42:42.531Z,6140
2017-08-09T16:43:43.243Z,22208
2017-08-09T16:44:43.951Z,7584
2017-08-09T16:45:44.889Z,6816
2017-08-09T16:46:45.553Z,12392
2017-08-09T16:47:46.551Z,11848
2017-08-09T16:48:47.584Z,16896
2017-08-09T16:49:48.357Z,18304
2017-08-09T16:50:49.078Z,20768
2017-08-09T16:51:49.851Z,20704
2017-08-09T16:52:50.558Z,22848
2017-08-09T16:53:51.548Z,17696
2017-08-09T16:54:52.243Z,7828
2017-08-09T16:55:53.005Z,6228
2017-08-09T16:56:55.831Z,5108
2017-08-09T16:57:55.591Z,4420
2017-08-09T16:58:56.600Z,4156
2017-08-09T16:59:57.369Z,4104
2017-08-09T17:00:58.113Z,4412
2017-08-09T17:01:58.886Z,15340
2017-08-09T17:02:59.567Z,17280
2017-08-09T17:04:00.729Z,4560
2017-08-09T17:05:01.416Z,6448
2017-08-09T17:06:02.158Z,4516
2017-08-09T17:07:02.964Z,4680
2017-08-09T17:08:03.645Z,4896
2017-08-09T17:09:04.333Z,5096
2017-08-09T17:10:05.329Z,5096
2017-08-09T17:11:06.077Z,4476
2017-08-09T17:12:06.869Z,4120
2017-08-09T17:13:07.600Z,3980
2017-08-09T17:14:08.270Z,3948
2017-08-09T17:15:09.342Z,3884
2017-08-09T17:16:10.101Z,3888
2017-08-09T17:17:10.839Z,3904
2017-08-09T17:18:11.536Z,3856
2017-08-09T17:19:12.264Z,3828
2017-08-09T17:20:12.924Z,3796
2017-08-09T17:21:14.172Z,3788
2017-08-09T17:22:14.895Z,3852
2017-08-09T17:23:15.594Z,3932
2017-08-09T17:24:16.276Z,3992
2017-08-09T17:25:16.942Z,4964
2017-08-09T17:26:17.880Z,6052
2017-08-09T17:27:18.934Z,7836
2017-08-09T17:28:19.626Z,4012
2017-08-09T17:29:20.328Z,4648
2017-08-09T17:30:21.078Z,7028
2017-08-09T17:31:21.807Z,7156
2017-08-09T17:32:22.837Z,10248
2017-08-09T17:33:23.540Z,11568
2017-08-09T17:34:24.241Z,11604
2017-08-09T17:35:24.939Z,11104
2017-08-09T17:36:25.678Z,10440
2017-08-09T17:37:26.453Z,8792
2017-08-09T17:38:27.462Z,8292
2017-08-09T17:39:28.139Z,7124
2017-08-09T17:40:28.829Z,9188
2017-08-09T17:41:29.708Z,9544
2017-08-09T17:42:30.356Z,9492
2017-08-09T17:43:31.359Z,9404
2017-08-09T17:44:32.079Z,9332
2017-08-09T17:45:32.795Z,9172
2017-08-09T17:46:33.855Z,8612
2017-08-09T17:47:34.563Z,8000
2017-08-09T17:48:35.306Z,2704
2017-08-09T17:49:36.323Z,2440
2017-08-09T17:50:37.096Z,2328
2017-08-09T17:51:37.999Z,2280
2017-08-09T17:52:38.676Z,2120
2017-08-09T17:53:39.387Z,2048
2017-08-09T17:54:40.125Z,2044
2017-08-09T17:55:41.164Z,1952
2017-08-09T17:56:41.954Z,1988
2017-08-09T17:57:42.647Z,2088
2017-08-09T17:58:43.384Z,2144
2017-08-09T17:59:44.153Z,2160
2017-08-09T18:00:45.132Z,2212
2017-08-09T18:01:46.011Z,2284
2017-08-09T18:02:46.755Z,2356
2017-08-09T18:03:47.537Z,2428
2017-08-09T18:04:48.182Z,2524
2017-08-09T18:05:48.882Z,2548
2017-08-09T18:06:50.060Z,2604
2017-08-09T18:07:50.811Z,3060
2017-08-09T18:08:51.618Z,3092
2017-08-09T18:09:52.290Z,2908
2017-08-09T18:10:53.003Z,2508
2017-08-09T18:11:54.247Z,2308
2017-08-09T18:12:54.936Z,2448
2017-08-09T18:13:55.642Z,2544
2017-08-09T18:14:56.422Z,3060
2017-08-09T18:15:57.125Z,3276
2017-08-09T18:16:58.355Z,3108
2017-08-09T18:17:59.088Z,2928
2017-08-09T18:18:59.755Z,2648
2017-08-09T18:20:00.447Z,1908
2017-08-09T18:21:01.159Z,1420
2017-08-09T18:22:01.976Z,1388
2017-08-09T18:23:02.969Z,1380
2017-08-09T18:24:03.695Z,1372
2017-08-09T18:25:04.350Z,1400
2017-08-09T18:26:05.037Z,1364
2017-08-09T18:27:05.790Z,1276
2017-08-09T18:28:06.799Z,1184
2017-08-09T18:29:07.502Z,1092
2017-08-09T18:30:08.241Z,1016
2017-08-09T18:31:08.961Z,960
2017-08-09T18:32:09.884Z,916
2017-08-09T18:33:10.568Z,884
2017-08-09T18:34:11.609Z,852
2017-08-09T18:35:12.274Z,816
2017-08-09T18:36:13.051Z,804
2017-08-09T18:37:13.948Z,792
2017-08-09T18:38:14.656Z,768
2017-08-09T18:39:15.380Z,748
2017-08-09T18:40:16.379Z,732
2017-08-09T18:41:17.100Z,708
2017-08-09T18:42:18.046Z,684
2017-08-09T18:43:18.776Z,656
2017-08-09T18:44:19.490Z,624
2017-08-09T18:45:20.455Z,592
2017-08-09T18:46:21.138Z,556
2017-08-09T18:47:21.981Z,520
2017-08-09T18:48:22.697Z,488
2017-08-09T18:49:23.437Z,456
2017-08-09T18:50:24.150Z,432
2017-08-09T18:51:25.147Z,400
2017-08-09T18:52:25.904Z,376
2017-08-09T18:53:26.712Z,352
2017-08-09T18:54:27.420Z,324
2017-08-09T18:55:28.070Z,304
2017-08-09T18:56:29.106Z,280
2017-08-09T18:57:29.950Z,260
2017-08-09T18:58:30.659Z,240
2017-08-09T18:59:31.362Z,224
2017-08-09T19:00:32.094Z,204
2017-08-09T19:01:32.803Z,192
2017-08-09T19:02:34.024Z,172
2017-08-09T19:03:34.688Z,160
2017-08-09T19:04:35.376Z,148
2017-08-09T19:05:36.181Z,136
2017-08-09T19:06:36.919Z,120
2017-08-09T19:07:37.638Z,108
2017-08-09T19:08:38.673Z,96
2017-08-09T19:09:39.363Z,88
2017-08-09T19:10:40.060Z,80
2017-08-09T19:11:40.789Z,72
2017-08-09T19:12:41.822Z,64
2017-08-09T19:13:43.528Z,56
2017-08-09T19:14:44.206Z,52
2017-08-09T19:15:44.952Z,48
2017-08-09T19:16:45.641Z,40
2017-08-09T19:17:46.586Z,36
2017-08-09T19:18:47.323Z,32
2017-08-09T19:19:48.364Z,28
2017-08-09T19:20:49.103Z,24
2017-08-09T19:21:49.744Z,20
2017-08-09T19:22:50.489Z,20
2017-08-09T19:23:51.284Z,16
2017-08-09T19:24:52.326Z,12
2017-08-09T19:25:53.012Z,12
2017-08-09T19:26:53.739Z,12
2017-08-09T19:27:54.436Z,8
2017-08-09T19:28:55.196Z,8
2017-08-09T19:29:55.884Z,4
2017-08-09T19:30:56.858Z,8
2017-08-09T19:31:57.570Z,4
2017-08-09T19:32:58.357Z,4
2017-08-09T19:33:59.056Z,0
2017-08-09T19:34:59.769Z,4
2017-08-09T19:36:00.460Z,4
2017-08-09T19:37:01.489Z,4
2017-08-09T19:38:02.266Z,0
2017-08-09T19:39:02.945Z,0
2017-08-09T19:40:03.628Z,0
2017-08-09T19:41:04.391Z,0
2017-08-09T19:42:05.453Z,0
2017-08-09T19:43:06.206Z,0
2017-08-09T19:44:06.879Z,0
2017-08-09T19:45:07.585Z,0
2017-08-09T19:46:08.243Z,0
2017-08-09T19:47:08.946Z,0
2017-08-09T19:48:10.062Z,0
2017-08-09T19:49:10.727Z,0
2017-08-09T19:50:11.436Z,0
2017-08-09T19:51:12.126Z,0
2017-08-09T19:52:12.811Z,0
2017-08-09T19:53:13.552Z,0
2017-08-09T19:54:14.584Z,0
2017-08-09T19:55:15.397Z,0
2017-08-09T19:56:16.109Z,0
2017-08-09T19:57:16.880Z,0
2017-08-09T19:58:17.640Z,0
2017-08-09T19:59:18.372Z,0